sensor_id;sensor_type;location;lat;lon;timestamp;P1;durP1;ratioP1;P2;durP2;ratioP2
48791;SDS011;34587;48.816;9.420;2023-12-04T00:00:59;19.38;;;9.65;;
48791;SDS011;34587;48.816;9.420;2023-12-04T00:03:24;16.50;;;8.88;;
48791;SDS011;34587;48.816;9.420;2023-12-04T00:05:49;17.98;;;9.50;;
48791;SDS011;34587;48.816;9.420;2023-12-04T00:08:14;18.83;;;9.55;;
48791;SDS011;34587;48.816;9.420;2023-12-04T00:10:40;24.80;;;9.98;;
48791;SDS011;34587;48.816;9.420;2023-12-04T00:13:05;19.02;;;8.90;;
48791;SDS011;34587;48.816;9.420;2023-12-04T00:15:30;25.50;;;10.25;;
48791;SDS011;34587;48.816;9.420;2023-12-04T00:17:55;21.15;;;8.50;;
48791;SDS011;34587;48.816;9.420;2023-12-04T00:20:21;18.38;;;8.38;;
48791;SDS011;34587;48.816;9.420;2023-12-04T00:22:46;19.52;;;9.00;;
48791;SDS011;34587;48.816;9.420;2023-12-04T00:25:12;20.55;;;10.00;;
48791;SDS011;34587;48.816;9.420;2023-12-04T00:27:37;22.38;;;9.40;;
48791;SDS011;34587;48.816;9.420;2023-12-04T00:30:03;19.38;;;9.60;;
48791;SDS011;34587;48.816;9.420;2023-12-04T00:32:29;16.50;;;8.55;;
48791;SDS011;34587;48.816;9.420;2023-12-04T00:34:54;22.65;;;9.50;;
48791;SDS011;34587;48.816;9.420;2023-12-04T00:37:19;20.20;;;8.77;;
48791;SDS011;34587;48.816;9.420;2023-12-04T00:39:45;16.67;;;7.97;;
48791;SDS011;34587;48.816;9.420;2023-12-04T00:42:10;15.80;;;7.68;;
48791;SDS011;34587;48.816;9.420;2023-12-04T00:44:35;19.40;;;8.00;;
48791;SDS011;34587;48.816;9.420;2023-12-04T00:47:00;21.73;;;9.35;;
48791;SDS011;34587;48.816;9.420;2023-12-04T00:49:26;19.55;;;8.23;;
48791;SDS011;34587;48.816;9.420;2023-12-04T00:51:51;20.10;;;9.07;;
48791;SDS011;34587;48.816;9.420;2023-12-04T00:54:17;19.90;;;8.50;;
48791;SDS011;34587;48.816;9.420;2023-12-04T00:56:42;23.65;;;10.25;;
48791;SDS011;34587;48.816;9.420;2023-12-04T00:59:10;23.83;;;9.38;;
48791;SDS011;34587;48.816;9.420;2023-12-04T05:15:10;8.18;;;5.38;;
48791;SDS011;34587;48.816;9.420;2023-12-04T05:17:35;6.75;;;4.18;;
48791;SDS011;34587;48.816;9.420;2023-12-04T05:20:00;8.85;;;4.82;;
48791;SDS011;34587;48.816;9.420;2023-12-04T05:22:25;11.23;;;4.80;;
48791;SDS011;34587;48.816;9.420;2023-12-04T05:24:51;6.53;;;4.20;;
48791;SDS011;34587;48.816;9.420;2023-12-04T05:27:16;7.50;;;4.68;;
48791;SDS011;34587;48.816;9.420;2023-12-04T05:29:41;8.82;;;5.20;;
48791;SDS011;34587;48.816;9.420;2023-12-04T05:32:07;12.13;;;5.65;;
48791;SDS011;34587;48.816;9.420;2023-12-04T05:34:32;11.05;;;5.63;;
48791;SDS011;34587;48.816;9.420;2023-12-04T05:36:57;10.07;;;6.03;;
48791;SDS011;34587;48.816;9.420;2023-12-04T05:39:22;10.57;;;5.47;;
48791;SDS011;34587;48.816;9.420;2023-12-04T05:41:48;8.00;;;5.40;;
48791;SDS011;34587;48.816;9.420;2023-12-04T05:44:13;9.40;;;5.35;;
48791;SDS011;34587;48.816;9.420;2023-12-04T05:46:39;11.38;;;5.60;;
48791;SDS011;34587;48.816;9.420;2023-12-04T05:49:04;9.07;;;5.22;;
48791;SDS011;34587;48.816;9.420;2023-12-04T05:51:29;10.77;;;6.03;;
48791;SDS011;34587;48.816;9.420;2023-12-04T05:53:55;13.98;;;6.25;;
48791;SDS011;34587;48.816;9.420;2023-12-04T05:56:21;9.43;;;4.47;;
48791;SDS011;34587;48.816;9.420;2023-12-04T05:58:46;12.98;;;5.45;;
48791;SDS011;34587;48.816;9.420;2023-12-04T06:01:11;14.63;;;6.60;;
48791;SDS011;34587;48.816;9.420;2023-12-04T06:03:36;11.02;;;5.30;;
48791;SDS011;34587;48.816;9.420;2023-12-04T06:06:02;13.02;;;5.97;;
48791;SDS011;34587;48.816;9.420;2023-12-04T06:08:27;9.00;;;5.55;;
48791;SDS011;34587;48.816;9.420;2023-12-04T06:10:53;13.30;;;6.32;;
48791;SDS011;34587;48.816;9.420;2023-12-04T06:13:18;17.30;;;7.00;;
48791;SDS011;34587;48.816;9.420;2023-12-04T06:15:43;12.13;;;6.32;;
48791;SDS011;34587;48.816;9.420;2023-12-04T06:18:09;10.25;;;6.03;;
48791;SDS011;34587;48.816;9.420;2023-12-04T06:20:34;9.18;;;5.80;;
48791;SDS011;34587;48.816;9.420;2023-12-04T06:22:59;9.43;;;5.60;;
48791;SDS011;34587;48.816;9.420;2023-12-04T06:25:25;12.38;;;7.45;;
48791;SDS011;34587;48.816;9.420;2023-12-04T06:27:51;10.38;;;5.90;;
48791;SDS011;34587;48.816;9.420;2023-12-04T06:30:16;11.88;;;6.28;;
48791;SDS011;34587;48.816;9.420;2023-12-04T06:32:42;14.50;;;6.57;;
48791;SDS011;34587;48.816;9.420;2023-12-04T06:35:08;14.27;;;6.35;;
48791;SDS011;34587;48.816;9.420;2023-12-04T06:37:34;10.77;;;5.93;;
48791;SDS011;34587;48.816;9.420;2023-12-04T06:40:01;14.20;;;6.32;;
48791;SDS011;34587;48.816;9.420;2023-12-04T06:42:27;15.80;;;7.47;;
48791;SDS011;34587;48.816;9.420;2023-12-04T06:44:53;10.40;;;5.75;;
48791;SDS011;34587;48.816;9.420;2023-12-04T06:47:19;9.32;;;5.43;;
48791;SDS011;34587;48.816;9.420;2023-12-04T06:49:48;16.10;;;7.05;;
48791;SDS011;34587;48.816;9.420;2023-12-04T06:52:13;15.13;;;6.43;;
48791;SDS011;34587;48.816;9.420;2023-12-04T06:54:38;13.25;;;6.38;;
48791;SDS011;34587;48.816;9.420;2023-12-04T06:57:04;13.02;;;6.38;;
48791;SDS011;34587;48.816;9.420;2023-12-04T06:59:29;9.45;;;5.07;;
48791;SDS011;34587;48.816;9.420;2023-12-04T07:01:55;12.80;;;5.22;;
48791;SDS011;34587;48.816;9.420;2023-12-04T07:04:20;11.75;;;5.40;;
48791;SDS011;34587;48.816;9.420;2023-12-04T07:06:47;9.43;;;5.68;;
48791;SDS011;34587;48.816;9.420;2023-12-04T07:09:13;11.80;;;5.82;;
48791;SDS011;34587;48.816;9.420;2023-12-04T07:11:39;8.93;;;5.10;;
48791;SDS011;34587;48.816;9.420;2023-12-04T07:14:04;9.90;;;6.05;;
48791;SDS011;34587;48.816;9.420;2023-12-04T07:16:29;15.18;;;6.05;;
48791;SDS011;34587;48.816;9.420;2023-12-04T07:18:55;13.77;;;5.93;;
48791;SDS011;34587;48.816;9.420;2023-12-04T07:21:20;13.18;;;6.07;;
48791;SDS011;34587;48.816;9.420;2023-12-04T07:23:46;8.88;;;5.07;;
48791;SDS011;34587;48.816;9.420;2023-12-04T07:26:11;13.88;;;5.68;;
48791;SDS011;34587;48.816;9.420;2023-12-04T07:28:37;18.42;;;6.07;;
48791;SDS011;34587;48.816;9.420;2023-12-04T07:31:02;12.15;;;5.25;;
48791;SDS011;34587;48.816;9.420;2023-12-04T07:33:27;14.07;;;6.63;;
48791;SDS011;34587;48.816;9.420;2023-12-04T07:35:54;13.55;;;6.05;;
48791;SDS011;34587;48.816;9.420;2023-12-04T07:38:19;11.60;;;5.28;;
48791;SDS011;34587;48.816;9.420;2023-12-04T07:40:44;10.90;;;5.75;;
48791;SDS011;34587;48.816;9.420;2023-12-04T07:43:10;17.70;;;5.75;;
48791;SDS011;34587;48.816;9.420;2023-12-04T07:45:35;14.13;;;5.65;;
48791;SDS011;34587;48.816;9.420;2023-12-04T07:48:02;12.68;;;5.95;;
48791;SDS011;34587;48.816;9.420;2023-12-04T07:50:28;11.75;;;6.18;;
48791;SDS011;34587;48.816;9.420;2023-12-04T07:52:54;14.90;;;6.00;;
48791;SDS011;34587;48.816;9.420;2023-12-04T07:55:19;12.40;;;5.90;;
48791;SDS011;34587;48.816;9.420;2023-12-04T07:57:44;14.00;;;7.18;;
48791;SDS011;34587;48.816;9.420;2023-12-04T08:00:10;9.57;;;5.05;;
48791;SDS011;34587;48.816;9.420;2023-12-04T08:02:35;9.80;;;5.28;;
48791;SDS011;34587;48.816;9.420;2023-12-04T08:05:00;11.73;;;6.13;;
48791;SDS011;34587;48.816;9.420;2023-12-04T08:07:26;8.93;;;5.47;;
48791;SDS011;34587;48.816;9.420;2023-12-04T08:09:51;15.93;;;6.80;;
48791;SDS011;34587;48.816;9.420;2023-12-04T08:12:18;11.30;;;5.72;;
48791;SDS011;34587;48.816;9.420;2023-12-04T08:14:43;10.93;;;5.75;;
48791;SDS011;34587;48.816;9.420;2023-12-04T08:17:08;13.75;;;6.25;;
48791;SDS011;34587;48.816;9.420;2023-12-04T08:19:34;10.57;;;5.93;;
48791;SDS011;34587;48.816;9.420;2023-12-04T08:21:59;22.20;;;6.20;;
48791;SDS011;34587;48.816;9.420;2023-12-04T08:24:24;12.35;;;6.78;;
48791;SDS011;34587;48.816;9.420;2023-12-04T08:26:49;13.35;;;5.55;;
48791;SDS011;34587;48.816;9.420;2023-12-04T08:29:15;15.75;;;6.25;;
48791;SDS011;34587;48.816;9.420;2023-12-04T08:31:41;11.32;;;6.32;;
48791;SDS011;34587;48.816;9.420;2023-12-04T08:34:07;15.85;;;5.93;;
48791;SDS011;34587;48.816;9.420;2023-12-04T08:36:32;9.85;;;4.45;;
48791;SDS011;34587;48.816;9.420;2023-12-04T08:38:57;8.50;;;4.63;;
48791;SDS011;34587;48.816;9.420;2023-12-04T08:41:23;8.50;;;4.88;;
48791;SDS011;34587;48.816;9.420;2023-12-04T08:43:48;9.35;;;5.05;;
48791;SDS011;34587;48.816;9.420;2023-12-04T08:46:13;8.50;;;4.15;;
48791;SDS011;34587;48.816;9.420;2023-12-04T08:48:42;10.52;;;4.75;;
48791;SDS011;34587;48.816;9.420;2023-12-04T08:51:07;10.70;;;6.22;;
48791;SDS011;34587;48.816;9.420;2023-12-04T08:53:35;13.57;;;6.10;;
48791;SDS011;34587;48.816;9.420;2023-12-04T08:56:01;11.38;;;5.75;;
48791;SDS011;34587;48.816;9.420;2023-12-04T08:58:27;14.38;;;6.70;;
48791;SDS011;34587;48.816;9.420;2023-12-04T09:00:53;12.55;;;5.32;;
48791;SDS011;34587;48.816;9.420;2023-12-04T09:03:18;15.07;;;6.07;;
48791;SDS011;34587;48.816;9.420;2023-12-04T09:05:45;11.93;;;5.88;;
48791;SDS011;34587;48.816;9.420;2023-12-04T09:08:11;10.00;;;5.38;;
48791;SDS011;34587;48.816;9.420;2023-12-04T09:10:36;7.95;;;5.57;;
48791;SDS011;34587;48.816;9.420;2023-12-04T09:13:01;10.25;;;4.90;;
48791;SDS011;34587;48.816;9.420;2023-12-04T09:15:27;11.43;;;5.10;;
48791;SDS011;34587;48.816;9.420;2023-12-04T09:17:52;11.10;;;5.10;;
48791;SDS011;34587;48.816;9.420;2023-12-04T09:20:18;8.07;;;4.82;;
48791;SDS011;34587;48.816;9.420;2023-12-04T09:22:43;9.80;;;4.72;;
48791;SDS011;34587;48.816;9.420;2023-12-04T09:25:09;10.57;;;5.40;;
48791;SDS011;34587;48.816;9.420;2023-12-04T09:27:34;7.22;;;4.35;;
48791;SDS011;34587;48.816;9.420;2023-12-04T09:30:00;10.38;;;5.65;;
48791;SDS011;34587;48.816;9.420;2023-12-04T09:32:26;13.75;;;5.35;;
48791;SDS011;34587;48.816;9.420;2023-12-04T09:34:51;13.65;;;5.32;;
48791;SDS011;34587;48.816;9.420;2023-12-04T09:37:17;10.32;;;5.53;;
48791;SDS011;34587;48.816;9.420;2023-12-04T09:39:42;17.58;;;5.47;;
48791;SDS011;34587;48.816;9.420;2023-12-04T09:42:07;11.95;;;5.72;;
48791;SDS011;34587;48.816;9.420;2023-12-04T09:44:33;14.18;;;6.53;;
48791;SDS011;34587;48.816;9.420;2023-12-04T09:46:59;10.02;;;5.22;;
48791;SDS011;34587;48.816;9.420;2023-12-04T09:49:26;14.57;;;6.18;;
48791;SDS011;34587;48.816;9.420;2023-12-04T09:51:53;17.63;;;8.57;;
48791;SDS011;34587;48.816;9.420;2023-12-04T09:54:19;12.98;;;6.60;;
48791;SDS011;34587;48.816;9.420;2023-12-04T09:56:44;9.88;;;5.72;;
48791;SDS011;34587;48.816;9.420;2023-12-04T09:59:10;11.63;;;5.70;;
48791;SDS011;34587;48.816;9.420;2023-12-04T10:01:38;14.88;;;6.72;;
48791;SDS011;34587;48.816;9.420;2023-12-04T10:04:05;19.25;;;6.35;;
48791;SDS011;34587;48.816;9.420;2023-12-04T10:06:31;13.65;;;6.15;;
48791;SDS011;34587;48.816;9.420;2023-12-04T10:08:57;10.55;;;5.90;;
48791;SDS011;34587;48.816;9.420;2023-12-04T10:11:23;10.20;;;5.07;;
48791;SDS011;34587;48.816;9.420;2023-12-04T10:13:49;13.30;;;5.93;;
48791;SDS011;34587;48.816;9.420;2023-12-04T10:16:24;10.35;;;5.43;;
48791;SDS011;34587;48.816;9.420;2023-12-04T10:18:56;11.70;;;5.80;;
48791;SDS011;34587;48.816;9.420;2023-12-04T10:21:22;12.35;;;6.57;;
48791;SDS011;34587;48.816;9.420;2023-12-04T10:23:47;14.48;;;5.40;;
48791;SDS011;34587;48.816;9.420;2023-12-04T10:26:15;12.23;;;5.45;;
48791;SDS011;34587;48.816;9.420;2023-12-04T10:28:58;22.70;;;6.80;;
48791;SDS011;34587;48.816;9.420;2023-12-04T10:31:25;10.52;;;5.88;;
48791;SDS011;34587;48.816;9.420;2023-12-04T10:33:50;10.15;;;5.63;;
48791;SDS011;34587;48.816;9.420;2023-12-04T10:36:15;16.73;;;6.25;;
48791;SDS011;34587;48.816;9.420;2023-12-04T10:38:42;11.45;;;5.45;;
48791;SDS011;34587;48.816;9.420;2023-12-04T10:41:14;14.73;;;6.35;;
48791;SDS011;34587;48.816;9.420;2023-12-04T10:43:48;12.40;;;6.28;;
48791;SDS011;34587;48.816;9.420;2023-12-04T10:46:14;15.07;;;6.50;;
48791;SDS011;34587;48.816;9.420;2023-12-04T10:48:41;10.30;;;5.90;;
48791;SDS011;34587;48.816;9.420;2023-12-04T10:51:12;20.13;;;6.63;;
48791;SDS011;34587;48.816;9.420;2023-12-04T10:53:38;11.90;;;5.95;;
48791;SDS011;34587;48.816;9.420;2023-12-04T10:56:06;14.68;;;6.03;;
48791;SDS011;34587;48.816;9.420;2023-12-04T10:58:34;11.70;;;5.75;;
48791;SDS011;34587;48.816;9.420;2023-12-04T11:01:04;11.43;;;5.82;;
48791;SDS011;34587;48.816;9.420;2023-12-04T11:03:37;13.20;;;6.35;;
48791;SDS011;34587;48.816;9.420;2023-12-04T11:06:08;13.95;;;6.00;;
48791;SDS011;34587;48.816;9.420;2023-12-04T11:08:37;14.00;;;6.67;;
48791;SDS011;34587;48.816;9.420;2023-12-04T11:11:07;10.93;;;5.97;;
48791;SDS011;34587;48.816;9.420;2023-12-04T11:13:37;8.30;;;5.35;;
48791;SDS011;34587;48.816;9.420;2023-12-04T11:21:33;11.65;;;5.38;;
48791;SDS011;34587;48.816;9.420;2023-12-04T11:24:00;21.33;;;6.20;;
48791;SDS011;34587;48.816;9.420;2023-12-04T11:26:26;9.82;;;5.22;;
48791;SDS011;34587;48.816;9.420;2023-12-04T11:28:52;20.92;;;6.70;;
48791;SDS011;34587;48.816;9.420;2023-12-04T11:31:18;12.15;;;6.15;;
48791;SDS011;34587;48.816;9.420;2023-12-04T11:33:44;11.32;;;6.50;;
48791;SDS011;34587;48.816;9.420;2023-12-04T11:36:09;11.52;;;6.18;;
48791;SDS011;34587;48.816;9.420;2023-12-04T11:38:38;10.30;;;6.43;;
48791;SDS011;34587;48.816;9.420;2023-12-04T11:41:18;10.70;;;7.15;;
48791;SDS011;34587;48.816;9.420;2023-12-04T11:43:45;14.20;;;6.43;;
48791;SDS011;34587;48.816;9.420;2023-12-04T11:46:12;16.13;;;7.03;;
48791;SDS011;34587;48.816;9.420;2023-12-04T11:48:39;14.07;;;6.70;;
48791;SDS011;34587;48.816;9.420;2023-12-04T11:51:05;14.88;;;5.82;;
48791;SDS011;34587;48.816;9.420;2023-12-04T11:53:32;15.30;;;7.85;;
48791;SDS011;34587;48.816;9.420;2023-12-04T11:55:57;17.42;;;7.35;;
48791;SDS011;34587;48.816;9.420;2023-12-04T11:58:23;40.13;;;8.75;;
48791;SDS011;34587;48.816;9.420;2023-12-04T12:00:48;19.05;;;7.90;;
48791;SDS011;34587;48.816;9.420;2023-12-04T12:03:14;17.08;;;7.10;;
48791;SDS011;34587;48.816;9.420;2023-12-04T12:05:40;13.93;;;7.38;;
48791;SDS011;34587;48.816;9.420;2023-12-04T12:08:06;25.67;;;7.70;;
48791;SDS011;34587;48.816;9.420;2023-12-04T12:10:33;15.27;;;6.88;;
48791;SDS011;34587;48.816;9.420;2023-12-04T12:12:59;17.70;;;7.75;;
48791;SDS011;34587;48.816;9.420;2023-12-04T12:15:25;14.10;;;7.10;;
48791;SDS011;34587;48.816;9.420;2023-12-04T12:17:50;21.75;;;8.65;;
48791;SDS011;34587;48.816;9.420;2023-12-04T12:20:19;17.83;;;7.97;;
48791;SDS011;34587;48.816;9.420;2023-12-04T12:22:47;14.90;;;6.28;;
48791;SDS011;34587;48.816;9.420;2023-12-04T12:25:13;15.50;;;6.55;;
48791;SDS011;34587;48.816;9.420;2023-12-04T12:27:39;17.35;;;7.35;;
48791;SDS011;34587;48.816;9.420;2023-12-04T12:30:05;13.25;;;6.55;;
48791;SDS011;34587;48.816;9.420;2023-12-04T12:32:31;20.58;;;7.65;;
48791;SDS011;34587;48.816;9.420;2023-12-04T12:34:57;12.38;;;6.18;;
48791;SDS011;34587;48.816;9.420;2023-12-04T12:37:22;11.40;;;6.45;;
48791;SDS011;34587;48.816;9.420;2023-12-04T12:39:48;15.13;;;7.65;;
48791;SDS011;34587;48.816;9.420;2023-12-04T12:42:26;16.58;;;8.07;;
48791;SDS011;34587;48.816;9.420;2023-12-04T12:44:53;12.77;;;7.45;;
48791;SDS011;34587;48.816;9.420;2023-12-04T12:47:19;20.48;;;8.30;;
48791;SDS011;34587;48.816;9.420;2023-12-04T12:49:44;18.50;;;8.25;;
48791;SDS011;34587;48.816;9.420;2023-12-04T12:52:10;15.85;;;8.27;;
48791;SDS011;34587;48.816;9.420;2023-12-04T12:54:44;20.73;;;8.57;;
48791;SDS011;34587;48.816;9.420;2023-12-04T12:57:10;18.00;;;8.82;;
48791;SDS011;34587;48.816;9.420;2023-12-04T12:59:37;17.65;;;8.52;;
48791;SDS011;34587;48.816;9.420;2023-12-04T13:02:04;21.33;;;8.05;;
48791;SDS011;34587;48.816;9.420;2023-12-04T13:04:36;19.05;;;8.65;;
48791;SDS011;34587;48.816;9.420;2023-12-04T13:07:06;35.72;;;9.00;;
48791;SDS011;34587;48.816;9.420;2023-12-04T13:09:35;15.18;;;7.68;;
48791;SDS011;34587;48.816;9.420;2023-12-04T13:12:01;16.05;;;7.50;;
48791;SDS011;34587;48.816;9.420;2023-12-04T13:14:27;19.83;;;8.45;;
48791;SDS011;34587;48.816;9.420;2023-12-04T13:16:52;18.27;;;8.18;;
48791;SDS011;34587;48.816;9.420;2023-12-04T13:19:19;19.73;;;9.45;;
48791;SDS011;34587;48.816;9.420;2023-12-04T13:21:45;16.50;;;8.88;;
48791;SDS011;34587;48.816;9.420;2023-12-04T13:24:10;23.08;;;9.48;;
48791;SDS011;34587;48.816;9.420;2023-12-04T13:26:36;12.73;;;6.40;;
48791;SDS011;34587;48.816;9.420;2023-12-04T13:29:01;17.58;;;8.63;;
48791;SDS011;34587;48.816;9.420;2023-12-04T13:31:27;17.23;;;7.90;;
48791;SDS011;34587;48.816;9.420;2023-12-04T13:33:52;17.60;;;7.43;;
48791;SDS011;34587;48.816;9.420;2023-12-04T13:36:18;16.27;;;8.05;;
48791;SDS011;34587;48.816;9.420;2023-12-04T13:38:43;20.00;;;8.43;;
48791;SDS011;34587;48.816;9.420;2023-12-04T13:41:08;16.90;;;7.43;;
48791;SDS011;34587;48.816;9.420;2023-12-04T13:43:54;19.40;;;7.90;;
48791;SDS011;34587;48.816;9.420;2023-12-04T13:46:20;16.42;;;7.65;;
48791;SDS011;34587;48.816;9.420;2023-12-04T13:48:45;21.50;;;7.20;;
48791;SDS011;34587;48.816;9.420;2023-12-04T13:51:11;15.85;;;7.80;;
48791;SDS011;34587;48.816;9.420;2023-12-04T13:53:37;21.58;;;9.23;;
48791;SDS011;34587;48.816;9.420;2023-12-04T13:56:09;14.38;;;7.90;;
48791;SDS011;34587;48.816;9.420;2023-12-04T13:58:50;11.20;;;6.25;;
48791;SDS011;34587;48.816;9.420;2023-12-04T14:01:22;11.93;;;7.13;;
48791;SDS011;34587;48.816;9.420;2023-12-04T14:03:49;12.02;;;6.55;;
48791;SDS011;34587;48.816;9.420;2023-12-04T14:06:16;13.68;;;7.03;;
48791;SDS011;34587;48.816;9.420;2023-12-04T14:08:41;20.63;;;9.15;;
48791;SDS011;34587;48.816;9.420;2023-12-04T14:11:07;17.27;;;8.32;;
48791;SDS011;34587;48.816;9.420;2023-12-04T14:13:32;14.98;;;7.80;;
48791;SDS011;34587;48.816;9.420;2023-12-04T14:15:58;11.35;;;6.82;;
48791;SDS011;34587;48.816;9.420;2023-12-04T14:18:23;20.38;;;9.05;;
48791;SDS011;34587;48.816;9.420;2023-12-04T14:20:49;13.70;;;8.43;;
48791;SDS011;34587;48.816;9.420;2023-12-04T14:23:14;18.70;;;8.90;;
48791;SDS011;34587;48.816;9.420;2023-12-04T14:25:40;18.42;;;8.65;;
48791;SDS011;34587;48.816;9.420;2023-12-04T14:28:06;20.08;;;9.30;;
48791;SDS011;34587;48.816;9.420;2023-12-04T14:30:31;17.67;;;9.25;;
48791;SDS011;34587;48.816;9.420;2023-12-04T14:32:57;18.15;;;8.32;;
48791;SDS011;34587;48.816;9.420;2023-12-04T14:35:22;16.38;;;7.90;;
48791;SDS011;34587;48.816;9.420;2023-12-04T14:37:48;27.15;;;9.50;;
48791;SDS011;34587;48.816;9.420;2023-12-04T14:40:14;18.00;;;8.48;;
48791;SDS011;34587;48.816;9.420;2023-12-04T14:42:40;16.67;;;8.52;;
48791;SDS011;34587;48.816;9.420;2023-12-04T14:45:05;14.75;;;6.78;;
48791;SDS011;34587;48.816;9.420;2023-12-04T14:47:31;16.77;;;8.30;;
48791;SDS011;34587;48.816;9.420;2023-12-04T14:49:57;15.20;;;8.00;;
48791;SDS011;34587;48.816;9.420;2023-12-04T14:52:22;18.95;;;8.48;;
48791;SDS011;34587;48.816;9.420;2023-12-04T14:54:48;22.85;;;9.55;;
48791;SDS011;34587;48.816;9.420;2023-12-04T14:57:24;15.35;;;8.88;;
48791;SDS011;34587;48.816;9.420;2023-12-04T15:00:05;15.85;;;7.60;;
48791;SDS011;34587;48.816;9.420;2023-12-04T15:02:34;19.77;;;9.35;;
48791;SDS011;34587;48.816;9.420;2023-12-04T15:05:18;15.88;;;8.38;;
48791;SDS011;34587;48.816;9.420;2023-12-04T15:08:02;15.15;;;8.60;;
48791;SDS011;34587;48.816;9.420;2023-12-04T15:10:46;18.08;;;8.48;;
48791;SDS011;34587;48.816;9.420;2023-12-04T15:13:43;14.07;;;8.07;;
48791;SDS011;34587;48.816;9.420;2023-12-04T15:16:09;23.23;;;8.93;;
48791;SDS011;34587;48.816;9.420;2023-12-04T15:18:37;20.13;;;9.15;;
48791;SDS011;34587;48.816;9.420;2023-12-04T15:21:17;24.08;;;9.23;;
48791;SDS011;34587;48.816;9.420;2023-12-04T15:23:43;20.00;;;9.55;;
48791;SDS011;34587;48.816;9.420;2023-12-04T15:26:08;21.60;;;9.43;;
48791;SDS011;34587;48.816;9.420;2023-12-04T15:28:34;22.70;;;9.02;;
48791;SDS011;34587;48.816;9.420;2023-12-04T15:30:59;18.48;;;9.25;;
48791;SDS011;34587;48.816;9.420;2023-12-04T15:33:26;16.98;;;7.63;;
48791;SDS011;34587;48.816;9.420;2023-12-04T15:35:52;19.15;;;9.43;;
48791;SDS011;34587;48.816;9.420;2023-12-04T15:38:18;16.60;;;8.60;;
48791;SDS011;34587;48.816;9.420;2023-12-04T15:40:44;17.80;;;9.10;;
48791;SDS011;34587;48.816;9.420;2023-12-04T15:43:09;16.55;;;9.48;;
48791;SDS011;34587;48.816;9.420;2023-12-04T15:45:35;20.88;;;9.23;;
48791;SDS011;34587;48.816;9.420;2023-12-04T15:48:00;19.20;;;8.25;;
48791;SDS011;34587;48.816;9.420;2023-12-04T15:50:26;17.10;;;8.88;;
48791;SDS011;34587;48.816;9.420;2023-12-04T15:52:51;18.88;;;8.07;;
48791;SDS011;34587;48.816;9.420;2023-12-04T15:55:16;19.20;;;9.48;;
48791;SDS011;34587;48.816;9.420;2023-12-04T15:57:41;16.70;;;8.88;;
48791;SDS011;34587;48.816;9.420;2023-12-04T16:00:07;24.35;;;9.25;;
48791;SDS011;34587;48.816;9.420;2023-12-04T16:02:34;22.65;;;10.27;;
48791;SDS011;34587;48.816;9.420;2023-12-04T16:05:00;21.20;;;9.23;;
48791;SDS011;34587;48.816;9.420;2023-12-04T16:07:25;22.50;;;9.35;;
48791;SDS011;34587;48.816;9.420;2023-12-04T16:09:50;20.40;;;9.15;;
48791;SDS011;34587;48.816;9.420;2023-12-04T16:12:16;24.92;;;9.52;;
48791;SDS011;34587;48.816;9.420;2023-12-04T16:14:41;20.67;;;9.63;;
48791;SDS011;34587;48.816;9.420;2023-12-04T16:17:07;24.85;;;9.32;;
48791;SDS011;34587;48.816;9.420;2023-12-04T16:19:32;21.17;;;9.10;;
48791;SDS011;34587;48.816;9.420;2023-12-04T16:21:58;23.55;;;9.63;;
48791;SDS011;34587;48.816;9.420;2023-12-04T16:24:25;24.48;;;9.13;;
48791;SDS011;34587;48.816;9.420;2023-12-04T16:26:51;16.67;;;8.82;;
48791;SDS011;34587;48.816;9.420;2023-12-04T16:29:18;19.98;;;9.10;;
48791;SDS011;34587;48.816;9.420;2023-12-04T16:31:44;19.58;;;9.93;;
48791;SDS011;34587;48.816;9.420;2023-12-04T16:34:09;23.50;;;9.95;;
48791;SDS011;34587;48.816;9.420;2023-12-04T16:36:35;21.05;;;9.63;;
48791;SDS011;34587;48.816;9.420;2023-12-04T16:39:01;22.65;;;9.63;;
48791;SDS011;34587;48.816;9.420;2023-12-04T16:41:26;26.10;;;10.98;;
48791;SDS011;34587;48.816;9.420;2023-12-04T16:43:51;25.20;;;9.88;;
48791;SDS011;34587;48.816;9.420;2023-12-04T16:46:16;21.73;;;10.75;;
48791;SDS011;34587;48.816;9.420;2023-12-04T16:48:42;23.15;;;10.10;;
48791;SDS011;34587;48.816;9.420;2023-12-04T16:51:08;24.50;;;10.20;;
48791;SDS011;34587;48.816;9.420;2023-12-04T16:53:34;23.70;;;10.52;;
48791;SDS011;34587;48.816;9.420;2023-12-04T16:55:59;23.85;;;9.30;;
48791;SDS011;34587;48.816;9.420;2023-12-04T16:58:24;15.93;;;9.07;;
48791;SDS011;34587;48.816;9.420;2023-12-04T17:00:50;22.00;;;9.57;;
48791;SDS011;34587;48.816;9.420;2023-12-04T17:03:15;28.83;;;10.90;;
48791;SDS011;34587;48.816;9.420;2023-12-04T17:05:40;20.67;;;9.23;;
48791;SDS011;34587;48.816;9.420;2023-12-04T17:08:05;21.10;;;9.23;;
48791;SDS011;34587;48.816;9.420;2023-12-04T17:10:31;29.83;;;10.77;;
48791;SDS011;34587;48.816;9.420;2023-12-04T17:12:56;20.35;;;9.77;;
48791;SDS011;34587;48.816;9.420;2023-12-04T17:15:22;23.50;;;10.60;;
48791;SDS011;34587;48.816;9.420;2023-12-04T17:17:47;26.05;;;10.20;;
48791;SDS011;34587;48.816;9.420;2023-12-04T17:20:12;17.23;;;9.35;;
48791;SDS011;34587;48.816;9.420;2023-12-04T17:22:38;29.33;;;11.10;;
48791;SDS011;34587;48.816;9.420;2023-12-04T17:25:04;27.50;;;10.20;;
48791;SDS011;34587;48.816;9.420;2023-12-04T17:27:31;21.75;;;10.65;;
48791;SDS011;34587;48.816;9.420;2023-12-04T17:29:56;28.52;;;11.35;;
48791;SDS011;34587;48.816;9.420;2023-12-04T17:32:21;25.10;;;10.55;;
48791;SDS011;34587;48.816;9.420;2023-12-04T17:34:47;24.13;;;12.65;;
48791;SDS011;34587;48.816;9.420;2023-12-04T17:37:12;27.38;;;10.95;;
48791;SDS011;34587;48.816;9.420;2023-12-04T17:39:38;23.67;;;9.77;;
48791;SDS011;34587;48.816;9.420;2023-12-04T17:42:03;25.77;;;9.55;;
48791;SDS011;34587;48.816;9.420;2023-12-04T17:44:29;23.58;;;10.32;;
48791;SDS011;34587;48.816;9.420;2023-12-04T17:46:54;20.25;;;9.55;;
48791;SDS011;34587;48.816;9.420;2023-12-04T17:49:20;24.23;;;9.68;;
48791;SDS011;34587;48.816;9.420;2023-12-04T17:51:45;20.83;;;10.68;;
48791;SDS011;34587;48.816;9.420;2023-12-04T17:54:10;25.00;;;10.85;;
48791;SDS011;34587;48.816;9.420;2023-12-04T17:56:36;29.92;;;10.05;;
48791;SDS011;34587;48.816;9.420;2023-12-04T17:59:02;21.05;;;10.07;;
48791;SDS011;34587;48.816;9.420;2023-12-04T18:01:27;21.30;;;10.13;;
48791;SDS011;34587;48.816;9.420;2023-12-04T18:03:53;22.95;;;9.98;;
48791;SDS011;34587;48.816;9.420;2023-12-04T18:06:25;23.55;;;10.85;;
48791;SDS011;34587;48.816;9.420;2023-12-04T18:08:55;31.02;;;11.73;;
48791;SDS011;34587;48.816;9.420;2023-12-04T18:11:20;24.45;;;10.82;;
48791;SDS011;34587;48.816;9.420;2023-12-04T18:13:46;24.38;;;10.80;;
48791;SDS011;34587;48.816;9.420;2023-12-04T18:16:12;23.00;;;8.98;;
48791;SDS011;34587;48.816;9.420;2023-12-04T18:18:38;23.48;;;10.18;;
48791;SDS011;34587;48.816;9.420;2023-12-04T18:21:04;30.10;;;11.00;;
48791;SDS011;34587;48.816;9.420;2023-12-04T18:23:30;24.95;;;9.40;;
48791;SDS011;34587;48.816;9.420;2023-12-04T18:25:56;24.67;;;9.77;;
48791;SDS011;34587;48.816;9.420;2023-12-04T18:28:22;22.88;;;10.38;;
48791;SDS011;34587;48.816;9.420;2023-12-04T18:30:48;26.95;;;11.60;;
48791;SDS011;34587;48.816;9.420;2023-12-04T18:33:13;25.50;;;11.88;;
48791;SDS011;34587;48.816;9.420;2023-12-04T18:35:39;23.13;;;11.15;;
48791;SDS011;34587;48.816;9.420;2023-12-04T18:38:07;26.40;;;10.32;;
48791;SDS011;34587;48.816;9.420;2023-12-04T18:40:44;29.90;;;11.98;;
48791;SDS011;34587;48.816;9.420;2023-12-04T18:43:10;28.23;;;11.93;;
48791;SDS011;34587;48.816;9.420;2023-12-04T18:45:35;19.55;;;9.45;;
48791;SDS011;34587;48.816;9.420;2023-12-04T18:48:04;21.25;;;10.20;;